sensor_id;sensor_type;location;lat;lon;timestamp;P1;durP1;ratioP1;P2;durP2;ratioP2
4084;SDS011;2057;50.858;6.572;2022-11-20T00:00:25;42.37;;;25.07;;
4084;SDS011;2057;50.858;6.572;2022-11-20T00:02:51;42.80;;;24.90;;
4084;SDS011;2057;50.858;6.572;2022-11-20T00:05:16;32.90;;;21.43;;
4084;SDS011;2057;50.858;6.572;2022-11-20T00:07:43;40.10;;;23.83;;
4084;SDS011;2057;50.858;6.572;2022-11-20T00:10:08;37.03;;;22.03;;
4084;SDS011;2057;50.858;6.572;2022-11-20T00:12:34;42.70;;;26.03;;
4084;SDS011;2057;50.858;6.572;2022-11-20T00:14:59;43.73;;;23.37;;
4084;SDS011;2057;50.858;6.572;2022-11-20T00:17:25;49.40;;;25.53;;
4084;SDS011;2057;50.858;6.572;2022-11-20T00:19:50;45.07;;;25.30;;
4084;SDS011;2057;50.858;6.572;2022-11-20T00:22:16;45.37;;;25.23;;
4084;SDS011;2057;50.858;6.572;2022-11-20T00:24:41;43.00;;;25.07;;
4084;SDS011;2057;50.858;6.572;2022-11-20T00:27:08;40.58;;;25.80;;
4084;SDS011;2057;50.858;6.572;2022-11-20T00:29:34;48.93;;;27.00;;
4084;SDS011;2057;50.858;6.572;2022-11-20T00:31:59;45.90;;;26.23;;
4084;SDS011;2057;50.858;6.572;2022-11-20T00:34:24;37.77;;;22.70;;
4084;SDS011;2057;50.858;6.572;2022-11-20T00:36:50;46.33;;;24.00;;
4084;SDS011;2057;50.858;6.572;2022-11-20T00:39:15;45.13;;;24.30;;
4084;SDS011;2057;50.858;6.572;2022-11-20T00:41:40;44.57;;;26.20;;
4084;SDS011;2057;50.858;6.572;2022-11-20T00:44:06;42.10;;;24.33;;
4084;SDS011;2057;50.858;6.572;2022-11-20T00:46:33;38.85;;;24.67;;
4084;SDS011;2057;50.858;6.572;2022-11-20T00:48:59;45.17;;;25.07;;
4084;SDS011;2057;50.858;6.572;2022-11-20T00:51:25;40.17;;;23.30;;
4084;SDS011;2057;50.858;6.572;2022-11-20T00:53:51;37.38;;;23.00;;
4084;SDS011;2057;50.858;6.572;2022-11-20T00:56:18;36.70;;;21.93;;
4084;SDS011;2057;50.858;6.572;2022-11-20T00:58:44;34.53;;;20.52;;
4084;SDS011;2057;50.858;6.572;2022-11-20T01:01:12;31.23;;;19.85;;
4084;SDS011;2057;50.858;6.572;2022-11-20T01:03:49;35.05;;;20.75;;
4084;SDS011;2057;50.858;6.572;2022-11-20T01:06:19;33.42;;;20.60;;
4084;SDS011;2057;50.858;6.572;2022-11-20T01:08:47;38.83;;;21.30;;
4084;SDS011;2057;50.858;6.572;2022-11-20T01:11:15;39.03;;;22.38;;
4084;SDS011;2057;50.858;6.572;2022-11-20T01:13:42;38.30;;;21.77;;
4084;SDS011;2057;50.858;6.572;2022-11-20T01:18:37;36.60;;;21.35;;
4084;SDS011;2057;50.858;6.572;2022-11-20T01:21:06;41.67;;;22.60;;
4084;SDS011;2057;50.858;6.572;2022-11-20T01:23:37;38.40;;;21.73;;
4084;SDS011;2057;50.858;6.572;2022-11-20T01:26:04;34.10;;;20.70;;
4084;SDS011;2057;50.858;6.572;2022-11-20T01:28:32;38.13;;;21.90;;
4084;SDS011;2057;50.858;6.572;2022-11-20T01:30:57;34.93;;;22.10;;
4084;SDS011;2057;50.858;6.572;2022-11-20T01:33:26;37.60;;;23.00;;
4084;SDS011;2057;50.858;6.572;2022-11-20T01:35:52;35.72;;;23.10;;
4084;SDS011;2057;50.858;6.572;2022-11-20T01:38:18;45.28;;;23.55;;
4084;SDS011;2057;50.858;6.572;2022-11-20T01:40:45;38.03;;;23.00;;
4084;SDS011;2057;50.858;6.572;2022-11-20T01:43:18;43.10;;;22.23;;
4084;SDS011;2057;50.858;6.572;2022-11-20T01:51:33;43.92;;;26.08;;
4084;SDS011;2057;50.858;6.572;2022-11-20T01:54:05;43.25;;;23.60;;
4084;SDS011;2057;50.858;6.572;2022-11-20T01:56:38;44.40;;;23.92;;
4084;SDS011;2057;50.858;6.572;2022-11-20T01:59:07;36.33;;;23.42;;
4084;SDS011;2057;50.858;6.572;2022-11-20T02:01:35;41.83;;;23.75;;
4084;SDS011;2057;50.858;6.572;2022-11-20T02:04:01;39.93;;;23.30;;
4084;SDS011;2057;50.858;6.572;2022-11-20T02:06:28;39.73;;;24.87;;
4084;SDS011;2057;50.858;6.572;2022-11-20T02:08:57;39.60;;;23.02;;
4084;SDS011;2057;50.858;6.572;2022-11-20T02:11:23;39.00;;;22.83;;
4084;SDS011;2057;50.858;6.572;2022-11-20T02:13:48;41.90;;;24.37;;
4084;SDS011;2057;50.858;6.572;2022-11-20T02:16:16;41.58;;;25.00;;
4084;SDS011;2057;50.858;6.572;2022-11-20T02:18:48;41.35;;;23.17;;
4084;SDS011;2057;50.858;6.572;2022-11-20T02:21:25;44.47;;;24.20;;
4084;SDS011;2057;50.858;6.572;2022-11-20T02:26:20;39.65;;;24.45;;
4084;SDS011;2057;50.858;6.572;2022-11-20T02:28:48;46.65;;;24.88;;
4084;SDS011;2057;50.858;6.572;2022-11-20T02:31:13;45.63;;;25.70;;
4084;SDS011;2057;50.858;6.572;2022-11-20T02:33:39;43.20;;;24.90;;
4084;SDS011;2057;50.858;6.572;2022-11-20T02:36:04;39.40;;;21.00;;
4084;SDS011;2057;50.858;6.572;2022-11-20T02:38:30;50.20;;;27.60;;
4084;SDS011;2057;50.858;6.572;2022-11-20T02:40:56;44.60;;;25.50;;
4084;SDS011;2057;50.858;6.572;2022-11-20T02:43:22;44.57;;;25.37;;
4084;SDS011;2057;50.858;6.572;2022-11-20T02:45:48;44.40;;;25.52;;
4084;SDS011;2057;50.858;6.572;2022-11-20T02:48:13;56.23;;;25.23;;
4084;SDS011;2057;50.858;6.572;2022-11-20T02:50:38;49.27;;;25.40;;
4084;SDS011;2057;50.858;6.572;2022-11-20T02:53:04;42.20;;;25.02;;
4084;SDS011;2057;50.858;6.572;2022-11-20T02:55:30;45.80;;;25.80;;
4084;SDS011;2057;50.858;6.572;2022-11-20T02:57:56;46.40;;;27.10;;
4084;SDS011;2057;50.858;6.572;2022-11-20T03:00:23;44.83;;;25.98;;
4084;SDS011;2057;50.858;6.572;2022-11-20T03:02:48;47.50;;;25.17;;
4084;SDS011;2057;50.858;6.572;2022-11-20T03:05:14;45.73;;;24.80;;
4084;SDS011;2057;50.858;6.572;2022-11-20T03:07:43;47.95;;;24.95;;
4084;SDS011;2057;50.858;6.572;2022-11-20T03:10:10;45.33;;;24.75;;
4084;SDS011;2057;50.858;6.572;2022-11-20T03:12:35;49.83;;;27.20;;
4084;SDS011;2057;50.858;6.572;2022-11-20T03:15:00;44.33;;;26.80;;
4084;SDS011;2057;50.858;6.572;2022-11-20T03:17:26;46.67;;;25.47;;
4084;SDS011;2057;50.858;6.572;2022-11-20T03:19:51;42.93;;;24.27;;
4084;SDS011;2057;50.858;6.572;2022-11-20T03:22:17;46.80;;;25.30;;
4084;SDS011;2057;50.858;6.572;2022-11-20T03:24:42;45.10;;;25.37;;
4084;SDS011;2057;50.858;6.572;2022-11-20T03:27:07;48.97;;;25.20;;
4084;SDS011;2057;50.858;6.572;2022-11-20T03:29:32;50.67;;;27.40;;
4084;SDS011;2057;50.858;6.572;2022-11-20T03:32:00;49.00;;;25.70;;
4084;SDS011;2057;50.858;6.572;2022-11-20T03:34:25;45.40;;;23.50;;
4084;SDS011;2057;50.858;6.572;2022-11-20T03:36:50;42.87;;;23.33;;
4084;SDS011;2057;50.858;6.572;2022-11-20T03:39:16;43.70;;;23.67;;
4084;SDS011;2057;50.858;6.572;2022-11-20T03:41:41;42.33;;;23.77;;
4084;SDS011;2057;50.858;6.572;2022-11-20T03:44:08;41.00;;;24.20;;
4084;SDS011;2057;50.858;6.572;2022-11-20T03:46:34;51.08;;;25.48;;
4084;SDS011;2057;50.858;6.572;2022-11-20T03:49:00;47.83;;;25.73;;
4084;SDS011;2057;50.858;6.572;2022-11-20T03:51:26;46.70;;;25.40;;
4084;SDS011;2057;50.858;6.572;2022-11-20T03:53:54;45.38;;;25.90;;
4084;SDS011;2057;50.858;6.572;2022-11-20T03:56:23;42.70;;;23.63;;
4084;SDS011;2057;50.858;6.572;2022-11-20T03:58:50;37.00;;;23.85;;
4084;SDS011;2057;50.858;6.572;2022-11-20T04:01:17;47.50;;;23.87;;
4084;SDS011;2057;50.858;6.572;2022-11-20T04:03:45;43.40;;;24.13;;
4084;SDS011;2057;50.858;6.572;2022-11-20T04:06:12;43.87;;;24.83;;
4084;SDS011;2057;50.858;6.572;2022-11-20T04:08:42;43.28;;;24.63;;
4084;SDS011;2057;50.858;6.572;2022-11-20T04:13:41;42.67;;;24.52;;
4084;SDS011;2057;50.858;6.572;2022-11-20T04:16:07;45.30;;;23.88;;
4084;SDS011;2057;50.858;6.572;2022-11-20T04:18:34;39.60;;;22.45;;
4084;SDS011;2057;50.858;6.572;2022-11-20T04:20:59;41.13;;;23.37;;
4084;SDS011;2057;50.858;6.572;2022-11-20T04:23:25;44.97;;;24.80;;
4084;SDS011;2057;50.858;6.572;2022-11-20T04:25:54;44.80;;;25.92;;
4084;SDS011;2057;50.858;6.572;2022-11-20T04:28:20;43.57;;;24.87;;
4084;SDS011;2057;50.858;6.572;2022-11-20T04:30:45;52.10;;;26.47;;
4084;SDS011;2057;50.858;6.572;2022-11-20T04:33:11;44.63;;;25.10;;
4084;SDS011;2057;50.858;6.572;2022-11-20T04:35:37;46.70;;;26.30;;
4084;SDS011;2057;50.858;6.572;2022-11-20T04:38:04;42.30;;;24.00;;
4084;SDS011;2057;50.858;6.572;2022-11-20T04:40:30;49.60;;;26.43;;
4084;SDS011;2057;50.858;6.572;2022-11-20T04:42:56;43.85;;;23.95;;
4084;SDS011;2057;50.858;6.572;2022-11-20T04:45:22;40.55;;;24.33;;
4084;SDS011;2057;50.858;6.572;2022-11-20T04:47:48;47.40;;;25.08;;
4084;SDS011;2057;50.858;6.572;2022-11-20T04:50:13;42.80;;;23.40;;
4084;SDS011;2057;50.858;6.572;2022-11-20T04:52:39;46.00;;;24.07;;
4084;SDS011;2057;50.858;6.572;2022-11-20T04:55:04;48.80;;;24.20;;
4084;SDS011;2057;50.858;6.572;2022-11-20T04:57:30;42.87;;;23.37;;
4084;SDS011;2057;50.858;6.572;2022-11-20T04:59:55;42.47;;;23.40;;
4084;SDS011;2057;50.858;6.572;2022-11-20T05:02:20;41.53;;;24.17;;
4084;SDS011;2057;50.858;6.572;2022-11-20T05:04:46;43.43;;;22.97;;
4084;SDS011;2057;50.858;6.572;2022-11-20T05:07:11;42.50;;;24.20;;
4084;SDS011;2057;50.858;6.572;2022-11-20T05:09:36;43.90;;;23.77;;
4084;SDS011;2057;50.858;6.572;2022-11-20T05:12:02;47.57;;;25.30;;
4084;SDS011;2057;50.858;6.572;2022-11-20T05:14:27;42.40;;;23.70;;
4084;SDS011;2057;50.858;6.572;2022-11-20T05:16:53;40.60;;;22.90;;
4084;SDS011;2057;50.858;6.572;2022-11-20T05:19:18;38.03;;;21.50;;
4084;SDS011;2057;50.858;6.572;2022-11-20T05:21:43;45.10;;;25.70;;
4084;SDS011;2057;50.858;6.572;2022-11-20T05:24:09;47.53;;;25.07;;
4084;SDS011;2057;50.858;6.572;2022-11-20T05:26:34;48.70;;;26.87;;
4084;SDS011;2057;50.858;6.572;2022-11-20T05:28:59;45.37;;;23.67;;
4084;SDS011;2057;50.858;6.572;2022-11-20T05:31:25;46.13;;;24.80;;
4084;SDS011;2057;50.858;6.572;2022-11-20T05:33:51;46.53;;;24.58;;
4084;SDS011;2057;50.858;6.572;2022-11-20T05:36:17;36.37;;;22.10;;
4084;SDS011;2057;50.858;6.572;2022-11-20T05:38:43;45.43;;;24.37;;
4084;SDS011;2057;50.858;6.572;2022-11-20T05:41:10;44.00;;;23.70;;
4084;SDS011;2057;50.858;6.572;2022-11-20T05:43:37;43.13;;;24.42;;
4084;SDS011;2057;50.858;6.572;2022-11-20T05:46:04;41.95;;;23.15;;
4084;SDS011;2057;50.858;6.572;2022-11-20T05:48:31;41.70;;;22.75;;
4084;SDS011;2057;50.858;6.572;2022-11-20T05:50:58;46.50;;;24.45;;
4084;SDS011;2057;50.858;6.572;2022-11-20T05:53:24;44.90;;;25.05;;
4084;SDS011;2057;50.858;6.572;2022-11-20T05:58:32;38.85;;;24.13;;
4084;SDS011;2057;50.858;6.572;2022-11-20T06:01:11;41.10;;;22.77;;
4084;SDS011;2057;50.858;6.572;2022-11-20T06:03:43;42.25;;;24.10;;
4084;SDS011;2057;50.858;6.572;2022-11-20T06:06:11;42.95;;;25.10;;
4084;SDS011;2057;50.858;6.572;2022-11-20T06:08:36;43.23;;;23.83;;
4084;SDS011;2057;50.858;6.572;2022-11-20T06:11:05;47.90;;;26.07;;
4084;SDS011;2057;50.858;6.572;2022-11-20T06:13:32;45.10;;;25.50;;
4084;SDS011;2057;50.858;6.572;2022-11-20T06:15:57;52.00;;;25.30;;
4084;SDS011;2057;50.858;6.572;2022-11-20T06:18:23;46.33;;;26.07;;
4084;SDS011;2057;50.858;6.572;2022-11-20T06:20:50;51.63;;;26.67;;
4084;SDS011;2057;50.858;6.572;2022-11-20T06:23:24;48.83;;;25.02;;
4084;SDS011;2057;50.858;6.572;2022-11-20T06:25:49;41.10;;;23.97;;
4084;SDS011;2057;50.858;6.572;2022-11-20T06:28:15;57.93;;;27.23;;
4084;SDS011;2057;50.858;6.572;2022-11-20T06:30:44;46.50;;;24.83;;
4084;SDS011;2057;50.858;6.572;2022-11-20T06:33:12;50.80;;;26.10;;
4084;SDS011;2057;50.858;6.572;2022-11-20T06:35:38;41.85;;;23.50;;
4084;SDS011;2057;50.858;6.572;2022-11-20T06:38:03;50.03;;;25.13;;
4084;SDS011;2057;50.858;6.572;2022-11-20T06:40:28;54.03;;;25.33;;
4084;SDS011;2057;50.858;6.572;2022-11-20T06:42:54;48.77;;;26.37;;
4084;SDS011;2057;50.858;6.572;2022-11-20T06:45:20;50.70;;;25.70;;
4084;SDS011;2057;50.858;6.572;2022-11-20T06:47:45;49.80;;;26.00;;
4084;SDS011;2057;50.858;6.572;2022-11-20T06:50:11;43.17;;;23.40;;
4084;SDS011;2057;50.858;6.572;2022-11-20T06:52:36;42.20;;;24.67;;
4084;SDS011;2057;50.858;6.572;2022-11-20T06:55:01;46.23;;;25.83;;
4084;SDS011;2057;50.858;6.572;2022-11-20T06:57:27;52.27;;;27.47;;
4084;SDS011;2057;50.858;6.572;2022-11-20T06:59:52;69.27;;;27.43;;
4084;SDS011;2057;50.858;6.572;2022-11-20T07:02:20;58.90;;;26.87;;
4084;SDS011;2057;50.858;6.572;2022-11-20T07:04:45;52.95;;;29.25;;
4084;SDS011;2057;50.858;6.572;2022-11-20T07:07:10;51.93;;;26.80;;
4084;SDS011;2057;50.858;6.572;2022-11-20T07:09:36;45.60;;;24.33;;
4084;SDS011;2057;50.858;6.572;2022-11-20T07:12:01;52.73;;;26.17;;
4084;SDS011;2057;50.858;6.572;2022-11-20T07:14:26;53.27;;;28.23;;
4084;SDS011;2057;50.858;6.572;2022-11-20T07:16:54;49.40;;;25.75;;
4084;SDS011;2057;50.858;6.572;2022-11-20T07:19:20;50.73;;;27.07;;
4084;SDS011;2057;50.858;6.572;2022-11-20T07:21:45;50.93;;;28.13;;
4084;SDS011;2057;50.858;6.572;2022-11-20T07:24:10;49.30;;;24.90;;
4084;SDS011;2057;50.858;6.572;2022-11-20T07:26:38;52.73;;;27.57;;
4084;SDS011;2057;50.858;6.572;2022-11-20T07:29:03;55.60;;;28.13;;
4084;SDS011;2057;50.858;6.572;2022-11-20T07:31:29;56.20;;;27.57;;
4084;SDS011;2057;50.858;6.572;2022-11-20T07:33:54;53.70;;;27.50;;
4084;SDS011;2057;50.858;6.572;2022-11-20T07:36:19;52.77;;;28.90;;
4084;SDS011;2057;50.858;6.572;2022-11-20T07:38:45;50.63;;;27.20;;
4084;SDS011;2057;50.858;6.572;2022-11-20T07:41:10;53.87;;;25.33;;
4084;SDS011;2057;50.858;6.572;2022-11-20T07:43:35;57.80;;;27.00;;
4084;SDS011;2057;50.858;6.572;2022-11-20T07:46:01;54.63;;;26.70;;
4084;SDS011;2057;50.858;6.572;2022-11-20T07:48:26;48.33;;;28.13;;
4084;SDS011;2057;50.858;6.572;2022-11-20T07:50:55;57.00;;;29.00;;
4084;SDS011;2057;50.858;6.572;2022-11-20T07:53:23;52.78;;;27.75;;
4084;SDS011;2057;50.858;6.572;2022-11-20T07:55:49;65.80;;;29.85;;
4084;SDS011;2057;50.858;6.572;2022-11-20T07:58:17;63.03;;;27.45;;
4084;SDS011;2057;50.858;6.572;2022-11-20T08:00:43;60.45;;;30.20;;
4084;SDS011;2057;50.858;6.572;2022-11-20T08:03:09;47.60;;;25.90;;
4084;SDS011;2057;50.858;6.572;2022-11-20T08:05:34;58.70;;;27.13;;
4084;SDS011;2057;50.858;6.572;2022-11-20T08:07:59;55.43;;;25.77;;
4084;SDS011;2057;50.858;6.572;2022-11-20T08:10:25;49.20;;;26.97;;
4084;SDS011;2057;50.858;6.572;2022-11-20T08:12:51;46.70;;;24.63;;
4084;SDS011;2057;50.858;6.572;2022-11-20T08:15:36;46.97;;;24.58;;
4084;SDS011;2057;50.858;6.572;2022-11-20T08:18:06;60.40;;;25.75;;
4084;SDS011;2057;50.858;6.572;2022-11-20T08:20:33;52.38;;;27.23;;
4084;SDS011;2057;50.858;6.572;2022-11-20T08:23:03;45.97;;;24.85;;
4084;SDS011;2057;50.858;6.572;2022-11-20T08:25:31;41.67;;;25.10;;
4084;SDS011;2057;50.858;6.572;2022-11-20T08:28:02;51.85;;;26.27;;
4084;SDS011;2057;50.858;6.572;2022-11-20T08:30:29;47.03;;;23.33;;
4084;SDS011;2057;50.858;6.572;2022-11-20T08:33:00;53.43;;;25.03;;
4084;SDS011;2057;50.858;6.572;2022-11-20T08:35:26;44.95;;;23.83;;
4084;SDS011;2057;50.858;6.572;2022-11-20T08:37:52;56.63;;;26.40;;
4084;SDS011;2057;50.858;6.572;2022-11-20T08:40:17;58.40;;;26.90;;
4084;SDS011;2057;50.858;6.572;2022-11-20T08:42:49;56.70;;;27.47;;
4084;SDS011;2057;50.858;6.572;2022-11-20T08:45:15;47.85;;;28.25;;
4084;SDS011;2057;50.858;6.572;2022-11-20T08:47:42;54.03;;;27.85;;
4084;SDS011;2057;50.858;6.572;2022-11-20T08:50:08;53.97;;;26.70;;
4084;SDS011;2057;50.858;6.572;2022-11-20T08:52:37;61.55;;;25.73;;
4084;SDS011;2057;50.858;6.572;2022-11-20T08:55:03;45.93;;;24.43;;
4084;SDS011;2057;50.858;6.572;2022-11-20T08:57:33;52.63;;;25.35;;
4084;SDS011;2057;50.858;6.572;2022-11-20T08:59:59;53.03;;;26.70;;
4084;SDS011;2057;50.858;6.572;2022-11-20T09:02:24;47.27;;;26.13;;
4084;SDS011;2057;50.858;6.572;2022-11-20T09:04:50;43.90;;;23.10;;
4084;SDS011;2057;50.858;6.572;2022-11-20T09:07:15;51.50;;;25.03;;
4084;SDS011;2057;50.858;6.572;2022-11-20T09:09:41;51.03;;;25.47;;
4084;SDS011;2057;50.858;6.572;2022-11-20T09:12:06;44.67;;;24.40;;
4084;SDS011;2057;50.858;6.572;2022-11-20T09:14:34;39.57;;;24.10;;
4084;SDS011;2057;50.858;6.572;2022-11-20T09:16:59;51.45;;;26.00;;
4084;SDS011;2057;50.858;6.572;2022-11-20T09:19:27;37.63;;;21.13;;
4084;SDS011;2057;50.858;6.572;2022-11-20T09:21:52;50.63;;;24.80;;
4084;SDS011;2057;50.858;6.572;2022-11-20T09:24:18;49.07;;;22.70;;
4084;SDS011;2057;50.858;6.572;2022-11-20T09:26:45;42.95;;;24.80;;
4084;SDS011;2057;50.858;6.572;2022-11-20T09:29:10;42.90;;;23.70;;
4084;SDS011;2057;50.858;6.572;2022-11-20T09:31:36;38.53;;;22.80;;
4084;SDS011;2057;50.858;6.572;2022-11-20T09:34:01;49.00;;;24.10;;
4084;SDS011;2057;50.858;6.572;2022-11-20T09:36:27;47.70;;;25.37;;
4084;SDS011;2057;50.858;6.572;2022-11-20T09:38:52;43.90;;;23.83;;
4084;SDS011;2057;50.858;6.572;2022-11-20T09:52:08;40.10;;;23.83;;
4084;SDS011;2057;50.858;6.572;2022-11-20T09:54:37;46.88;;;25.73;;
4084;SDS011;2057;50.858;6.572;2022-11-20T09:57:08;42.05;;;23.63;;
4084;SDS011;2057;50.858;6.572;2022-11-20T09:59:40;42.90;;;23.92;;
4084;SDS011;2057;50.858;6.572;2022-11-20T10:07:52;45.45;;;23.42;;
4084;SDS011;2057;50.858;6.572;2022-11-20T10:16:17;40.42;;;22.38;;
4084;SDS011;2057;50.858;6.572;2022-11-20T10:18:43;39.63;;;22.40;;
4084;SDS011;2057;50.858;6.572;2022-11-20T10:29:36;46.70;;;25.67;;
4084;SDS011;2057;50.858;6.572;2022-11-20T10:32:10;48.13;;;25.45;;
4084;SDS011;2057;50.858;6.572;2022-11-20T10:37:26;45.85;;;24.33;;
4084;SDS011;2057;50.858;6.572;2022-11-20T10:39:57;40.40;;;22.50;;
4084;SDS011;2057;50.858;6.572;2022-11-20T10:42:43;51.78;;;26.40;;
4084;SDS011;2057;50.858;6.572;2022-11-20T10:47:48;43.97;;;25.30;;
4084;SDS011;2057;50.858;6.572;2022-11-20T10:50:16;46.83;;;24.77;;
4084;SDS011;2057;50.858;6.572;2022-11-20T10:58:10;50.47;;;26.10;;
4084;SDS011;2057;50.858;6.572;2022-11-20T11:00:41;42.13;;;26.45;;
4084;SDS011;2057;50.858;6.572;2022-11-20T11:03:17;42.57;;;24.30;;
4084;SDS011;2057;50.858;6.572;2022-11-20T11:06:34;48.53;;;26.65;;
4084;SDS011;2057;50.858;6.572;2022-11-20T11:08:46;44.95;;;23.70;;
4084;SDS011;2057;50.858;6.572;2022-11-20T11:11:24;45.78;;;23.60;;
4084;SDS011;2057;50.858;6.572;2022-11-20T11:13:52;40.78;;;22.13;;
4084;SDS011;2057;50.858;6.572;2022-11-20T11:16:27;53.63;;;26.70;;
4084;SDS011;2057;50.858;6.572;2022-11-20T11:19:03;41.65;;;22.17;;
4084;SDS011;2057;50.858;6.572;2022-11-20T11:21:32;50.95;;;25.70;;
4084;SDS011;2057;50.858;6.572;2022-11-20T11:24:01;43.97;;;25.27;;
4084;SDS011;2057;50.858;6.572;2022-11-20T11:26:28;49.00;;;23.13;;
4084;SDS011;2057;50.858;6.572;2022-11-20T11:31:26;42.78;;;22.65;;
4084;SDS011;2057;50.858;6.572;2022-11-20T11:34:06;37.33;;;21.25;;
4084;SDS011;2057;50.858;6.572;2022-11-20T11:36:33;48.90;;;24.90;;
4084;SDS011;2057;50.858;6.572;2022-11-20T11:39:00;49.53;;;26.55;;
4084;SDS011;2057;50.858;6.572;2022-11-20T11:41:28;49.63;;;24.60;;
4084;SDS011;2057;50.858;6.572;2022-11-20T11:43:58;54.28;;;23.83;;
4084;SDS011;2057;50.858;6.572;2022-11-20T11:46:52;45.67;;;24.75;;
4084;SDS011;2057;50.858;6.572;2022-11-20T11:49:20;53.58;;;25.17;;
4084;SDS011;2057;50.858;6.572;2022-11-20T11:59:53;37.63;;;21.25;;
4084;SDS011;2057;50.858;6.572;2022-11-20T12:05:24;48.75;;;22.52;;
4084;SDS011;2057;50.858;6.572;2022-11-20T12:15:49;41.92;;;21.90;;
4084;SDS011;2057;50.858;6.572;2022-11-20T12:18:15;39.50;;;21.47;;
4084;SDS011;2057;50.858;6.572;2022-11-20T12:20:48;38.78;;;21.50;;
4084;SDS011;2057;50.858;6.572;2022-11-20T12:26:01;42.28;;;21.02;;
4084;SDS011;2057;50.858;6.572;2022-11-20T12:34:20;44.22;;;22.38;;
4084;SDS011;2057;50.858;6.572;2022-11-20T12:36:56;44.65;;;22.38;;
4084;SDS011;2057;50.858;6.572;2022-11-20T12:53:33;39.38;;;23.60;;
4084;SDS011;2057;50.858;6.572;2022-11-20T12:58:44;46.10;;;22.10;;
4084;SDS011;2057;50.858;6.572;2022-11-20T13:01:27;46.53;;;24.25;;
4084;SDS011;2057;50.858;6.572;2022-11-20T13:06:57;40.08;;;21.80;;
4084;SDS011;2057;50.858;6.572;2022-11-20T13:09:23;43.25;;;20.80;;
4084;SDS011;2057;50.858;6.572;2022-11-20T13:11:53;35.38;;;19.27;;
4084;SDS011;2057;50.858;6.572;2022-11-20T13:14:37;37.08;;;20.77;;
4084;SDS011;2057;50.858;6.572;2022-11-20T13:19:33;43.97;;;21.87;;
4084;SDS011;2057;50.858;6.572;2022-11-20T13:21:59;42.58;;;23.17;;
4084;SDS011;2057;50.858;6.572;2022-11-20T13:24:26;47.07;;;20.63;;
4084;SDS011;2057;50.858;6.572;2022-11-20T13:29:29;39.63;;;21.20;;
4084;SDS011;2057;50.858;6.572;2022-11-20T13:34:29;36.00;;;19.63;;
4084;SDS011;2057;50.858;6.572;2022-11-20T13:36:57;40.00;;;22.85;;
4084;SDS011;2057;50.858;6.572;2022-11-20T13:39:36;37.95;;;21.05;;
4084;SDS011;2057;50.858;6.572;2022-11-20T13:47:04;36.20;;;21.05;;
4084;SDS011;2057;50.858;6.572;2022-11-20T13:49:45;34.75;;;20.02;;
4084;SDS011;2057;50.858;6.572;2022-11-20T14:00:21;42.83;;;21.80;;
4084;SDS011;2057;50.858;6.572;2022-11-20T14:02:57;37.13;;;21.15;;
4084;SDS011;2057;50.858;6.572;2022-11-20T14:05:30;31.55;;;18.95;;
4084;SDS011;2057;50.858;6.572;2022-11-20T14:08:00;38.55;;;19.77;;
4084;SDS011;2057;50.858;6.572;2022-11-20T14:10:29;33.08;;;17.90;;
4084;SDS011;2057;50.858;6.572;2022-11-20T14:12:54;41.97;;;20.77;;
4084;SDS011;2057;50.858;6.572;2022-11-20T14:15:38;33.20;;;19.27;;
4084;SDS011;2057;50.858;6.572;2022-11-20T14:18:18;30.70;;;17.55;;
4084;SDS011;2057;50.858;6.572;2022-11-20T14:20:46;43.15;;;20.73;;
4084;SDS011;2057;50.858;6.572;2022-11-20T14:23:12;35.93;;;20.63;;
4084;SDS011;2057;50.858;6.572;2022-11-20T14:25:50;38.88;;;20.80;;
4084;SDS011;2057;50.858;6.572;2022-11-20T14:28:48;43.17;;;21.90;;
4084;SDS011;2057;50.858;6.572;2022-11-20T14:31:09;39.10;;;22.08;;
4084;SDS011;2057;50.858;6.572;2022-11-20T14:33:46;38.35;;;21.48;;
4084;SDS011;2057;50.858;6.572;2022-11-20T14:36:16;37.67;;;19.30;;
4084;SDS011;2057;50.858;6.572;2022-11-20T14:38:45;59.38;;;23.75;;
4084;SDS011;2057;50.858;6.572;2022-11-20T14:41:30;41.25;;;20.67;;
4084;SDS011;2057;50.858;6.572;2022-11-20T14:43:57;32.70;;;20.63;;
4084;SDS011;2057;50.858;6.572;2022-11-20T14:46:24;40.47;;;22.90;;
4084;SDS011;2057;50.858;6.572;2022-11-20T14:48:51;65.90;;;29.65;;
4084;SDS011;2057;50.858;6.572;2022-11-20T14:51:31;43.45;;;25.70;;
4084;SDS011;2057;50.858;6.572;2022-11-20T14:56:41;38.58;;;20.63;;
4084;SDS011;2057;50.858;6.572;2022-11-20T14:59:07;38.15;;;20.95;;
4084;SDS011;2057;50.858;6.572;2022-11-20T15:01:33;40.15;;;21.55;;
4084;SDS011;2057;50.858;6.572;2022-11-20T15:04:00;35.03;;;20.63;;
4084;SDS011;2057;50.858;6.572;2022-11-20T15:06:34;41.03;;;22.30;;
4084;SDS011;2057;50.858;6.572;2022-11-20T15:09:01;37.27;;;23.60;;
4084;SDS011;2057;50.858;6.572;2022-11-20T15:11:31;43.25;;;22.67;;
4084;SDS011;2057;50.858;6.572;2022-11-20T15:14:01;38.55;;;21.05;;
4084;SDS011;2057;50.858;6.572;2022-11-20T15:16:28;42.00;;;23.60;;
4084;SDS011;2057;50.858;6.572;2022-11-20T15:18:53;37.20;;;21.17;;
4084;SDS011;2057;50.858;6.572;2022-11-20T15:21:19;41.27;;;23.33;;
4084;SDS011;2057;50.858;6.572;2022-11-20T15:23:48;49.22;;;23.95;;
4084;SDS011;2057;50.858;6.572;2022-11-20T15:26:17;45.73;;;23.47;;
4084;SDS011;2057;50.858;6.572;2022-11-20T15:28:49;40.33;;;22.45;;
4084;SDS011;2057;50.858;6.572;2022-11-20T15:31:16;47.53;;;24.70;;
4084;SDS011;2057;50.858;6.572;2022-11-20T15:33:42;38.00;;;20.92;;
4084;SDS011;2057;50.858;6.572;2022-11-20T15:36:08;42.37;;;25.13;;
4084;SDS011;2057;50.858;6.572;2022-11-20T15:38:34;44.37;;;24.27;;
4084;SDS011;2057;50.858;6.572;2022-11-20T15:40:59;26.30;;;16.40;;
4084;SDS011;2057;50.858;6.572;2022-11-20T15:43:25;27.87;;;15.97;;
4084;SDS011;2057;50.858;6.572;2022-11-20T15:45:51;26.43;;;14.63;;
4084;SDS011;2057;50.858;6.572;2022-11-20T15:48:38;21.92;;;12.77;;
4084;SDS011;2057;50.858;6.572;2022-11-20T15:53:34;25.42;;;12.48;;
4084;SDS011;2057;50.858;6.572;2022-11-20T15:55:59;22.63;;;11.47;;
4084;SDS011;2057;50.858;6.572;2022-11-20T15:58:29;15.60;;;8.38;;
4084;SDS011;2057;50.858;6.572;2022-11-20T16:00:55;17.58;;;7.20;;
4084;SDS011;2057;50.858;6.572;2022-11-20T16:03:21;5.23;;;4.43;;
4084;SDS011;2057;50.858;6.572;2022-11-20T16:05:46;5.83;;;3.13;;
4084;SDS011;2057;50.858;6.572;2022-11-20T16:08:12;5.90;;;3.17;;
4084;SDS011;2057;50.858;6.572;2022-11-20T16:10:40;22.92;;;8.43;;
4084;SDS011;2057;50.858;6.572;2022-11-20T16:13:11;12.23;;;7.30;;
4084;SDS011;2057;50.858;6.572;2022-11-20T16:15:57;7.43;;;4.72;;
4084;SDS011;2057;50.858;6.572;2022-11-20T16:18:23;7.80;;;5.38;;
4084;SDS011;2057;50.858;6.572;2022-11-20T16:20:51;5.03;;;3.27;;
4084;SDS011;2057;50.858;6.572;2022-11-20T16:23:17;6.55;;;3.75;;
4084;SDS011;2057;50.858;6.572;2022-11-20T16:25:44;12.10;;;4.40;;
4084;SDS011;2057;50.858;6.572;2022-11-20T16:28:10;6.87;;;3.50;;
4084;SDS011;2057;50.858;6.572;2022-11-20T16:30:36;6.93;;;3.03;;
4084;SDS011;2057;50.858;6.572;2022-11-20T16:33:02;9.02;;;2.95;;
4084;SDS011;2057;50.858;6.572;2022-11-20T16:35:29;13.18;;;2.67;;
4084;SDS011;2057;50.858;6.572;2022-11-20T16:37:56;13.85;;;2.97;;
4084;SDS011;2057;50.858;6.572;2022-11-20T16:40:22;3.40;;;2.47;;
4084;SDS011;2057;50.858;6.572;2022-11-20T16:42:48;3.78;;;2.40;;
4084;SDS011;2057;50.858;6.572;2022-11-20T16:45:14;7.70;;;2.70;;
4084;SDS011;2057;50.858;6.572;2022-11-20T16:47:40;21.05;;;2.60;;
4084;SDS011;2057;50.858;6.572;2022-11-20T16:50:06;7.57;;;3.20;;
4084;SDS011;2057;50.858;6.572;2022-11-20T16:52:32;10.80;;;6.38;;
4084;SDS011;2057;50.858;6.572;2022-11-20T16:54:57;12.10;;;5.40;;
4084;SDS011;2057;50.858;6.572;2022-11-20T16:57:23;9.30;;;4.40;;
4084;SDS011;2057;50.858;6.572;2022-11-20T16:59:49;11.97;;;6.00;;
4084;SDS011;2057;50.858;6.572;2022-11-20T17:02:14;6.83;;;3.50;;
4084;SDS011;2057;50.858;6.572;2022-11-20T17:04:40;8.77;;;3.40;;
4084;SDS011;2057;50.858;6.572;2022-11-20T17:07:06;10.20;;;2.53;;